createdAt,value
2017-01-05T00:00:54.915Z,0.92
2017-01-05T00:02:06.529Z,0.89
2017-01-05T00:03:17.919Z,0.92
2017-01-05T00:04:29.313Z,0.85
2017-01-05T00:05:40.970Z,0.81
2017-01-05T00:06:52.571Z,0.85
2017-01-05T00:08:03.978Z,0.86
2017-01-05T00:09:15.382Z,0.76
2017-01-05T00:10:26.981Z,0.76
2017-01-05T00:11:38.635Z,0.84
2017-01-05T00:12:50.043Z,0.85
2017-01-05T00:14:01.448Z,0.79
2017-01-05T00:15:12.843Z,0.81
2017-01-05T00:16:24.254Z,0.82
2017-01-05T00:17:35.728Z,0.74
2017-01-05T00:18:47.123Z,0.79
2017-01-05T00:19:58.718Z,0.75
2017-01-05T00:21:10.315Z,0.75
2017-01-05T00:22:21.720Z,0.67
2017-01-05T00:23:33.163Z,0.67
2017-01-05T00:24:44.762Z,0.74
2017-01-05T00:25:56.191Z,0.69
2017-01-05T00:27:07.588Z,0.66
2017-01-05T00:28:18.989Z,0.63
2017-01-05T00:29:30.436Z,0.6
2017-01-05T00:30:41.832Z,0.56
2017-01-05T00:31:53.230Z,0.56
2017-01-05T00:33:04.622Z,0.63
2017-01-05T00:34:16.020Z,0.63
2017-01-05T00:35:27.460Z,0.6
2017-01-05T00:36:38.860Z,0.58
2017-01-05T00:37:50.259Z,0.6
2017-01-05T00:39:01.653Z,0.61
2017-01-05T00:40:13.051Z,0.53
2017-01-05T00:41:24.494Z,0.53
2017-01-05T00:42:35.895Z,0.44
2017-01-05T00:43:47.287Z,0.48
2017-01-05T00:44:58.678Z,0.56
2017-01-05T00:46:10.069Z,0.53
2017-01-05T00:47:21.516Z,0.53
2017-01-05T00:48:33.153Z,0.52
2017-01-05T00:49:44.556Z,0.38
2017-01-05T00:50:56.154Z,0.44
2017-01-05T00:52:07.557Z,0.5
2017-01-05T00:53:19.002Z,0.53
2017-01-05T00:54:30.433Z,0.57
2017-01-05T00:55:41.835Z,0.52
2017-01-05T00:56:53.229Z,0.44
2017-01-05T00:58:04.835Z,0.5
2017-01-05T00:59:16.277Z,0.53
2017-01-05T01:00:27.672Z,0.47
2017-01-05T01:01:39.070Z,0.57
2017-01-05T01:02:50.470Z,0.53
2017-01-05T01:04:02.071Z,0.48
2017-01-05T01:05:13.510Z,0.57
2017-01-05T01:06:24.923Z,0.48
2017-01-05T01:07:36.321Z,0.57
2017-01-05T01:08:47.721Z,0.53
2017-01-05T01:09:59.134Z,0.52
2017-01-05T01:11:10.595Z,0.57
2017-01-05T01:12:21.997Z,0.52
2017-01-05T01:13:33.395Z,0.6
2017-01-05T01:14:44.797Z,0.6
2017-01-05T01:15:56.394Z,0.61
2017-01-05T01:17:07.848Z,0.64
2017-01-05T01:18:19.252Z,0.6
2017-01-05T01:19:30.651Z,0.57
2017-01-05T01:20:42.053Z,0.6
2017-01-05T01:21:53.484Z,0.6
2017-01-05T01:23:04.936Z,0.63
2017-01-05T01:24:16.338Z,0.64
2017-01-05T01:25:27.740Z,0.57
2017-01-05T01:26:39.154Z,0.56
2017-01-05T01:27:50.571Z,0.64
2017-01-05T01:29:02.243Z,0.6
2017-01-05T01:30:13.641Z,0.64
2017-01-05T01:31:25.049Z,0.6
2017-01-05T01:32:36.858Z,0.69
2017-01-05T01:33:48.262Z,0.6
2017-01-05T01:34:59.708Z,0.53
2017-01-05T01:36:11.113Z,0.56
2017-01-05T01:37:22.515Z,0.57
2017-01-05T01:38:33.927Z,0.6
2017-01-05T01:39:45.330Z,0.64
2017-01-05T01:40:56.733Z,0.63
2017-01-05T01:42:08.124Z,0.57
2017-01-05T01:43:19.517Z,0.58
2017-01-05T01:44:30.917Z,0.69
2017-01-05T01:45:42.372Z,0.61
2017-01-05T01:46:53.774Z,0.61
2017-01-05T01:48:05.174Z,0.71
2017-01-05T01:49:16.581Z,0.74
2017-01-05T01:50:27.983Z,0.69
2017-01-05T01:51:39.431Z,0.72
2017-01-05T01:52:50.827Z,0.72
2017-01-05T01:54:02.227Z,0.74
2017-01-05T01:55:13.619Z,0.71
2017-01-05T01:56:25.022Z,0.82
2017-01-05T01:57:36.483Z,0.75
2017-01-05T01:58:48.087Z,0.75
2017-01-05T01:59:59.482Z,0.75
2017-01-05T02:01:10.882Z,0.78
2017-01-05T02:02:22.280Z,0.75
2017-01-05T02:03:33.725Z,0.75
2017-01-05T02:04:45.326Z,0.72
2017-01-05T02:05:56.725Z,0.76
2017-01-05T02:07:08.328Z,0.69
2017-01-05T02:08:19.726Z,0.66
2017-01-05T02:09:31.177Z,0.69
2017-01-05T02:10:42.580Z,0.67
2017-01-05T02:11:53.976Z,0.61
2017-01-05T02:13:05.367Z,0.61
2017-01-05T02:14:16.969Z,0.56
2017-01-05T02:15:28.613Z,0.6
2017-01-05T02:16:40.008Z,0.6
2017-01-05T02:17:51.408Z,0.57
2017-01-05T02:19:02.808Z,0.56
2017-01-05T02:20:14.418Z,0.57
2017-01-05T02:21:26.076Z,0.58
2017-01-05T02:22:37.475Z,0.52
2017-01-05T02:23:49.078Z,0.39
2017-01-05T02:25:00.477Z,0.44
2017-01-05T02:26:11.869Z,0.37
2017-01-05T02:27:23.317Z,0.39
2017-01-05T02:28:34.748Z,0.38
2017-01-05T02:29:46.140Z,0.34
2017-01-05T02:30:57.562Z,0.39
2017-01-05T02:32:08.956Z,0.37
2017-01-05T02:33:20.417Z,0.37
2017-01-05T02:34:31.808Z,0.41
2017-01-05T02:35:43.205Z,0.39
2017-01-05T02:36:54.607Z,0.32
2017-01-05T02:38:05.999Z,0.42
2017-01-05T02:39:17.660Z,0.37
2017-01-05T02:40:29.060Z,0.44
2017-01-05T02:41:40.462Z,0.39
2017-01-05T02:42:52.063Z,0.37
2017-01-05T02:44:03.665Z,0.39
2017-01-05T02:45:15.316Z,0.41
2017-01-05T02:46:26.713Z,0.34
2017-01-05T02:47:38.115Z,0.38
2017-01-05T02:48:49.715Z,0.41
2017-01-05T02:50:01.121Z,0.38
2017-01-05T02:51:12.576Z,0.37
2017-01-05T02:52:23.971Z,0.37
2017-01-05T02:53:35.368Z,0.37
2017-01-05T02:54:46.768Z,0.35
2017-01-05T02:55:58.165Z,0.27
2017-01-05T02:57:10.026Z,0.28
2017-01-05T02:58:21.421Z,0.24
2017-01-05T02:59:32.813Z,0.16
2017-01-05T03:00:44.221Z,0.24
2017-01-05T03:01:55.615Z,0.16
2017-01-05T03:03:07.066Z,0.23
2017-01-05T03:04:18.468Z,0.23
2017-01-05T03:05:30.273Z,0.17
2017-01-05T03:06:41.916Z,0.14
2017-01-05T03:07:53.512Z,0.19
2017-01-05T03:09:04.962Z,0.09
2017-01-05T03:10:16.561Z,0.23
2017-01-05T03:11:27.953Z,0.2
2017-01-05T03:12:39.355Z,0.23
2017-01-05T03:13:50.773Z,0.2
2017-01-05T03:15:02.423Z,0.14
2017-01-05T03:16:13.822Z,0.23
2017-01-05T03:17:25.428Z,0.19
2017-01-05T03:18:36.837Z,0.24
2017-01-05T03:19:48.445Z,0.21
2017-01-05T03:20:59.881Z,0.21
2017-01-05T03:22:11.275Z,0.24
2017-01-05T03:23:22.679Z,0.23
2017-01-05T03:24:34.108Z,0.34
2017-01-05T03:25:45.566Z,0.27
2017-01-05T03:26:56.971Z,0.23
2017-01-05T03:28:08.364Z,0.23
2017-01-05T03:29:19.772Z,0.2
2017-01-05T03:30:31.169Z,0.19
2017-01-05T03:31:42.615Z,0.26
2017-01-05T03:32:54.016Z,0.31
2017-01-05T03:34:05.415Z,0.27
2017-01-05T03:35:16.824Z,0.24
2017-01-05T03:36:28.227Z,0.27
2017-01-05T03:37:39.684Z,0.27
2017-01-05T03:38:51.106Z,0.24
2017-01-05T03:40:02.538Z,0.27
2017-01-05T03:41:14.133Z,0.26
2017-01-05T03:42:25.526Z,0.27
2017-01-05T03:43:36.972Z,0.26
2017-01-05T03:44:48.378Z,0.26
2017-01-05T03:45:59.773Z,0.32
2017-01-05T03:47:11.369Z,0.31
2017-01-05T03:48:22.766Z,0.26
2017-01-05T03:49:34.418Z,0.31
2017-01-05T03:50:45.822Z,0.21
2017-01-05T03:51:57.425Z,0.24
2017-01-05T03:53:09.052Z,0.32
2017-01-05T03:54:20.654Z,0.24
2017-01-05T03:55:32.103Z,0.2
2017-01-05T03:56:43.503Z,0.2
2017-01-05T03:57:55.102Z,0.24
2017-01-05T03:59:06.505Z,0.23
2017-01-05T04:00:17.903Z,0.23
2017-01-05T04:01:29.360Z,0.19
2017-01-05T04:02:40.766Z,0.17
2017-01-05T04:03:52.160Z,0.08
2017-01-05T04:05:03.554Z,0.16
2017-01-05T04:06:14.956Z,0.05
2017-01-05T04:07:26.406Z,0.1
2017-01-05T04:08:37.808Z,0.08
2017-01-05T04:09:49.399Z,0.08
2017-01-05T04:11:00.795Z,-0.09
2017-01-05T04:12:12.200Z,-0.07
2017-01-05T04:13:23.653Z,-0.18
2017-01-05T04:14:35.251Z,-0.13
2017-01-05T04:15:46.854Z,-0.16
2017-01-05T04:16:58.252Z,-0.13
2017-01-05T04:18:10.052Z,-0.19
2017-01-05T04:19:21.504Z,-0.23
2017-01-05T04:20:33.093Z,-0.15
2017-01-05T04:21:44.501Z,-0.16
2017-01-05T04:22:55.911Z,-0.19
2017-01-05T04:24:07.304Z,-0.31
2017-01-05T04:25:18.753Z,-0.27
2017-01-05T04:26:30.357Z,-0.27
2017-01-05T04:27:41.759Z,-0.27
2017-01-05T04:28:53.360Z,-0.33
2017-01-05T04:30:04.776Z,-0.37
2017-01-05T04:31:16.258Z,-0.37
2017-01-05T04:32:27.660Z,-0.38
2017-01-05T04:33:39.099Z,-0.38
2017-01-05T04:34:50.494Z,-0.38
2017-01-05T04:36:01.885Z,-0.46
2017-01-05T04:37:13.329Z,-0.45
2017-01-05T04:38:24.722Z,-0.4
2017-01-05T04:39:36.123Z,-0.43
2017-01-05T04:40:47.554Z,-0.41
2017-01-05T04:41:59.151Z,-0.46
2017-01-05T04:43:10.602Z,-0.45
2017-01-05T04:44:21.989Z,-0.4
2017-01-05T04:45:33.387Z,-0.55
2017-01-05T04:46:44.987Z,-0.48
2017-01-05T04:47:56.380Z,-0.59
2017-01-05T04:49:07.825Z,-0.52
2017-01-05T04:50:19.227Z,-0.59
2017-01-05T04:51:30.623Z,-0.66
2017-01-05T04:52:42.028Z,-0.61
2017-01-05T04:53:53.431Z,-0.72
2017-01-05T04:55:04.886Z,-0.62
2017-01-05T04:56:16.291Z,-0.64
2017-01-05T04:57:27.690Z,-0.67
2017-01-05T04:58:39.094Z,-0.7
2017-01-05T04:59:50.492Z,-0.73
2017-01-05T05:01:01.890Z,-0.61
2017-01-05T05:02:13.303Z,-0.64
2017-01-05T05:03:24.709Z,-0.67
2017-01-05T05:04:36.310Z,-0.62
2017-01-05T05:05:47.960Z,-0.66
2017-01-05T05:06:59.355Z,-0.7
2017-01-05T05:08:10.757Z,-0.73
2017-01-05T05:09:22.361Z,-0.7
2017-01-05T05:10:33.959Z,-0.76
2017-01-05T05:11:45.402Z,-0.67
2017-01-05T05:12:56.996Z,-0.62
2017-01-05T05:14:08.400Z,-0.69
2017-01-05T05:15:19.810Z,-0.61
2017-01-05T05:16:31.414Z,-0.72
2017-01-05T05:17:42.857Z,-0.7
2017-01-05T05:18:54.251Z,-0.84
2017-01-05T05:20:05.858Z,-0.79
2017-01-05T05:21:17.268Z,-0.77
2017-01-05T05:22:28.672Z,-0.77
2017-01-05T05:23:40.120Z,-0.82
2017-01-05T05:24:51.720Z,-0.79
2017-01-05T05:26:03.115Z,-0.84
2017-01-05T05:27:14.716Z,-0.82
2017-01-05T05:28:26.143Z,-0.8
2017-01-05T05:29:37.584Z,-0.84
2017-01-05T05:30:48.981Z,-0.91
2017-01-05T05:32:00.385Z,-0.84
2017-01-05T05:33:11.778Z,-0.84
2017-01-05T05:34:23.173Z,-0.8
2017-01-05T05:35:34.618Z,-0.87
2017-01-05T05:36:46.021Z,-0.8
2017-01-05T05:37:57.425Z,-0.91
2017-01-05T05:39:08.819Z,-0.93
2017-01-05T05:40:20.424Z,-0.93
2017-01-05T05:41:31.872Z,-0.96
2017-01-05T05:42:43.279Z,-0.93
2017-01-05T05:43:54.873Z,-0.99
2017-01-05T05:45:06.266Z,-1.04
2017-01-05T05:46:17.669Z,-1.04
2017-01-05T05:47:29.126Z,-1.01
2017-01-05T05:48:40.527Z,-1.11
2017-01-05T05:49:52.133Z,-1.1
2017-01-05T05:51:03.740Z,-1.09
2017-01-05T05:52:15.338Z,-1.16
2017-01-05T05:53:26.792Z,-1.16
2017-01-05T05:54:38.187Z,-1.17
2017-01-05T05:55:49.595Z,-1.16
2017-01-05T05:57:01.207Z,-1.16
2017-01-05T05:58:12.606Z,-1.25
2017-01-05T05:59:24.257Z,-1.21
2017-01-05T06:00:35.654Z,-1.19
2017-01-05T06:01:47.046Z,-1.25
2017-01-05T06:02:58.457Z,-1.19
2017-01-05T06:04:09.844Z,-1.22
2017-01-05T06:05:21.291Z,-1.37
2017-01-05T06:06:32.688Z,-1.35
2017-01-05T06:07:44.087Z,-1.3
2017-01-05T06:08:55.684Z,-1.32
2017-01-05T06:10:07.083Z,-1.43
2017-01-05T06:11:18.559Z,-1.45
2017-01-05T06:12:29.956Z,-1.45
2017-01-05T06:13:41.359Z,-1.49
2017-01-05T06:14:52.763Z,-1.49
2017-01-05T06:16:04.159Z,-1.45
2017-01-05T06:17:15.601Z,-1.42
2017-01-05T06:18:26.999Z,-1.34
2017-01-05T06:19:38.427Z,-1.43
2017-01-05T06:20:49.823Z,-1.37
2017-01-05T06:22:01.213Z,-1.48
2017-01-05T06:23:12.866Z,-1.48
2017-01-05T06:24:24.263Z,-1.49
2017-01-05T06:25:35.662Z,-1.45
2017-01-05T06:26:47.062Z,-1.46
2017-01-05T06:27:58.658Z,-1.53
2017-01-05T06:29:10.102Z,-1.5
2017-01-05T06:30:21.499Z,-1.56
2017-01-05T06:31:32.906Z,-1.49
2017-01-05T06:32:44.317Z,-1.52
2017-01-05T06:33:55.713Z,-1.43
2017-01-05T06:35:07.157Z,-1.49
2017-01-05T06:36:18.556Z,-1.48
2017-01-05T06:37:29.952Z,-1.49
2017-01-05T06:38:41.381Z,-1.55
2017-01-05T06:39:52.774Z,-1.49
2017-01-05T06:41:04.374Z,-1.53
2017-01-05T06:42:15.764Z,-1.56
2017-01-05T06:43:27.357Z,-1.52
2017-01-05T06:44:38.748Z,-1.63
2017-01-05T06:45:50.225Z,-1.64
2017-01-05T06:47:01.650Z,-1.6
2017-01-05T06:48:13.051Z,-1.7
2017-01-05T06:49:24.449Z,-1.66
2017-01-05T06:50:35.843Z,-1.67
2017-01-05T06:51:47.300Z,-1.64
2017-01-05T06:52:58.903Z,-1.63
2017-01-05T06:54:10.308Z,-1.7
2017-01-05T06:55:21.701Z,-1.66
2017-01-05T06:56:33.095Z,-1.71
2017-01-05T06:57:44.540Z,-1.67
2017-01-05T06:58:55.938Z,-1.67
2017-01-05T07:00:07.735Z,-1.63
2017-01-05T07:01:19.318Z,-1.64
2017-01-05T07:02:30.728Z,-1.61
2017-01-05T07:03:42.180Z,-1.58
2017-01-05T07:04:53.779Z,-1.55
2017-01-05T07:06:05.182Z,-1.67
2017-01-05T07:07:16.584Z,-1.58
2017-01-05T07:08:28.406Z,-1.66
2017-01-05T07:09:39.848Z,-1.64
2017-01-05T07:10:51.250Z,-1.68
2017-01-05T07:12:02.643Z,-1.66
2017-01-05T07:13:14.046Z,-1.64
2017-01-05T07:14:25.442Z,-1.71
2017-01-05T07:15:36.898Z,-1.79
2017-01-05T07:16:48.507Z,-1.7
2017-01-05T07:18:00.100Z,-1.73
2017-01-05T07:19:11.487Z,-1.71
2017-01-05T07:20:23.069Z,-1.84
2017-01-05T07:21:34.553Z,-1.73
2017-01-05T07:22:45.945Z,-1.82
2017-01-05T07:23:57.340Z,-1.71
2017-01-05T07:25:08.737Z,-1.82
2017-01-05T07:26:20.162Z,-1.84
2017-01-05T07:27:31.607Z,-1.79
2017-01-05T07:28:43.009Z,-1.82
2017-01-05T07:29:54.608Z,-1.81
2017-01-05T07:31:06.004Z,-1.85
2017-01-05T07:32:17.405Z,-1.85
2017-01-05T07:33:28.883Z,-1.82
2017-01-05T07:34:40.312Z,-1.85
2017-01-05T07:35:51.709Z,-1.86
2017-01-05T07:37:03.109Z,-2.02
2017-01-05T07:38:14.500Z,-1.86
2017-01-05T07:39:25.950Z,-1.89
2017-01-05T07:40:37.351Z,-1.89
2017-01-05T07:41:48.755Z,-1.96
2017-01-05T07:43:00.355Z,-1.86
2017-01-05T07:44:11.758Z,-1.88
2017-01-05T07:45:23.201Z,-2.02
2017-01-05T07:46:34.594Z,-1.89
2017-01-05T07:47:46.001Z,-1.91
2017-01-05T07:48:57.627Z,-1.99
2017-01-05T07:50:09.054Z,-1.96
2017-01-05T07:51:20.500Z,-1.94
2017-01-05T07:52:31.889Z,-1.97
2017-01-05T07:53:43.478Z,-1.97
2017-01-05T07:54:54.860Z,-1.88
2017-01-05T07:56:06.454Z,-1.96
2017-01-05T07:57:17.893Z,-2.02
2017-01-05T07:58:29.289Z,-1.89
2017-01-05T07:59:40.678Z,-1.85
2017-01-05T08:00:52.479Z,-1.88
2017-01-05T08:02:03.884Z,-1.82
2017-01-05T08:03:15.529Z,-1.84
2017-01-05T08:04:27.131Z,-1.82
2017-01-05T08:05:38.557Z,-1.79
2017-01-05T08:06:49.947Z,-1.85
2017-01-05T08:08:01.377Z,-1.76
2017-01-05T08:09:12.820Z,-1.76
2017-01-05T08:10:24.221Z,-1.82
2017-01-05T08:11:35.619Z,-1.67
2017-01-05T08:12:47.014Z,-1.73
2017-01-05T08:13:58.414Z,-1.73
2017-01-05T08:15:10.069Z,-1.67
2017-01-05T08:16:21.466Z,-1.68
2017-01-05T08:17:32.867Z,-1.61
2017-01-05T08:18:44.261Z,-1.67
2017-01-05T08:19:55.659Z,-1.56
2017-01-05T08:21:07.114Z,-1.49
2017-01-05T08:22:18.511Z,-1.35
2017-01-05T08:23:29.911Z,-1.06
2017-01-05T08:24:41.509Z,-0.91
2017-01-05T08:25:52.916Z,-0.61
2017-01-05T08:27:04.569Z,-0.56
2017-01-05T08:28:15.975Z,-0.41
2017-01-05T08:29:27.372Z,-0.16
2017-01-05T08:30:38.767Z,0.02
2017-01-05T08:31:50.169Z,0.35
2017-01-05T08:33:01.817Z,0.56
2017-01-05T08:34:13.220Z,1.03
2017-01-05T08:35:24.622Z,1.26
2017-01-05T08:36:36.019Z,1.53
2017-01-05T08:37:47.415Z,1.72
2017-01-05T08:38:58.876Z,1.86
2017-01-05T08:40:10.281Z,2.13
2017-01-05T08:41:21.881Z,2.29
2017-01-05T08:42:33.279Z,2.3
2017-01-05T08:43:44.685Z,2.12
2017-01-05T08:44:56.129Z,2.04
2017-01-05T08:46:07.531Z,2.05
2017-01-05T08:47:18.928Z,2.08
2017-01-05T08:48:30.737Z,2.22
2017-01-05T08:49:42.141Z,2.38
2017-01-05T08:50:53.546Z,2.52
2017-01-05T08:52:04.939Z,2.65
2017-01-05T08:53:16.345Z,2.93
2017-01-05T08:54:27.747Z,3.14
2017-01-05T08:55:39.206Z,3.39
2017-01-05T08:56:50.618Z,3.54
2017-01-05T08:58:02.017Z,3.85
2017-01-05T08:59:13.424Z,4.17
2017-01-05T09:00:24.825Z,4.56
2017-01-05T09:01:36.268Z,4.97
2017-01-05T09:02:47.679Z,5.2
2017-01-05T09:03:59.089Z,5.3
2017-01-05T09:05:10.500Z,5.16
2017-01-05T09:06:21.907Z,5.03
2017-01-05T09:07:33.369Z,5.02
2017-01-05T09:08:44.807Z,5
2017-01-05T09:09:56.213Z,5.08
2017-01-05T09:11:07.621Z,5.3
2017-01-05T09:12:19.024Z,5.55
2017-01-05T09:13:30.493Z,5.57
2017-01-05T09:14:41.899Z,5.72
2017-01-05T09:15:53.312Z,5.72
2017-01-05T09:17:04.722Z,5.73
2017-01-05T09:18:16.128Z,5.99
2017-01-05T09:19:27.615Z,6.18
2017-01-05T09:20:39.022Z,6.4
2017-01-05T09:21:50.428Z,6.8
2017-01-05T09:23:01.829Z,6.98
2017-01-05T09:24:13.248Z,7.03
2017-01-05T09:25:24.698Z,7.26
2017-01-05T09:26:36.112Z,7.44
2017-01-05T09:27:47.517Z,7.51
2017-01-05T09:28:58.924Z,7.55
2017-01-05T09:30:10.333Z,7.88
2017-01-05T09:31:22.188Z,7.93
2017-01-05T09:32:33.629Z,8.21
2017-01-05T09:33:45.035Z,8.22
2017-01-05T09:34:56.443Z,8.39
2017-01-05T09:36:07.855Z,8.47
2017-01-05T09:37:19.341Z,8.86
2017-01-05T09:38:30.750Z,8.89
2017-01-05T09:39:42.166Z,9
2017-01-05T09:40:53.579Z,8.98
2017-01-05T09:42:05.199Z,8.64
2017-01-05T09:43:16.657Z,8.36
2017-01-05T09:44:28.272Z,8.53
2017-01-05T09:45:39.887Z,8.69
2017-01-05T09:46:51.305Z,8.94
2017-01-05T09:48:02.920Z,8.82
2017-01-05T09:49:14.583Z,8.79
2017-01-05T09:50:25.996Z,8.69
2017-01-05T09:51:37.610Z,8.62
2017-01-05T09:52:49.027Z,8.74
2017-01-05T09:54:00.445Z,8.76
2017-01-05T09:55:11.907Z,8.8
2017-01-05T09:56:23.324Z,8.76
2017-01-05T09:57:34.774Z,8.79
2017-01-05T09:58:46.190Z,8.86
2017-01-05T09:59:57.597Z,8.98
2017-01-05T10:01:09.061Z,8.94
2017-01-05T10:02:20.466Z,9.01
2017-01-05T10:03:31.872Z,8.94
2017-01-05T10:04:43.494Z,8.86
2017-01-05T10:05:54.907Z,8.57
2017-01-05T10:07:06.370Z,8.4
2017-01-05T10:08:17.984Z,8.64
2017-01-05T10:09:29.596Z,8.54
2017-01-05T10:10:41.012Z,8.52
2017-01-05T10:11:52.427Z,8.68
2017-01-05T10:13:03.885Z,8.46
2017-01-05T10:14:15.298Z,8.19
2017-01-05T10:15:26.713Z,8.31
2017-01-05T10:16:38.367Z,8.47
2017-01-05T10:17:49.981Z,8.9
2017-01-05T10:19:01.434Z,8.87
2017-01-05T10:20:12.840Z,8.94
2017-01-05T10:21:24.446Z,8.83
2017-01-05T10:22:35.858Z,9.14
2017-01-05T10:23:47.475Z,9.37
2017-01-05T10:24:58.938Z,9.48
2017-01-05T10:26:10.557Z,9.7
2017-01-05T10:27:21.968Z,9.5
2017-01-05T10:28:33.384Z,9.55
2017-01-05T10:29:45.002Z,9.37
2017-01-05T10:30:56.466Z,9.35
2017-01-05T10:32:07.876Z,9.37
2017-01-05T10:33:19.487Z,9.53
2017-01-05T10:34:30.901Z,9.72
2017-01-05T10:35:42.366Z,9.88
2017-01-05T10:36:53.978Z,9.81
2017-01-05T10:38:05.384Z,9.81
2017-01-05T10:39:17.005Z,9.56
2017-01-05T10:40:28.415Z,9.41
2017-01-05T10:41:39.879Z,9.37
2017-01-05T10:42:51.296Z,9.26
2017-01-05T10:44:02.711Z,9.39
2017-01-05T10:45:14.123Z,9.66
2017-01-05T10:46:25.527Z,10.08
2017-01-05T10:47:36.995Z,9.88
2017-01-05T10:48:48.414Z,9.67
2017-01-05T10:50:00.020Z,9.44
2017-01-05T10:51:11.428Z,9.26
2017-01-05T10:52:23.050Z,9.19
2017-01-05T10:53:34.711Z,9.17
2017-01-05T10:54:46.135Z,9.14
2017-01-05T10:55:57.548Z,9.14
2017-01-05T10:57:08.966Z,8.95
2017-01-05T10:58:20.378Z,9.11
2017-01-05T10:59:31.835Z,9.55
2017-01-05T11:00:43.252Z,9.39
2017-01-05T11:01:54.657Z,9.38
2017-01-05T11:03:06.067Z,9.52
2017-01-05T11:04:17.478Z,9.42
2017-01-05T11:05:28.934Z,9.37
2017-01-05T11:06:40.548Z,9.26
2017-01-05T11:07:51.951Z,9.21
2017-01-05T11:09:03.370Z,9.3
2017-01-05T11:10:14.785Z,9.17
2017-01-05T11:11:26.244Z,8.82
2017-01-05T11:12:37.663Z,8.31
2017-01-05T11:13:49.284Z,8.17
2017-01-05T11:15:00.696Z,7.82
2017-01-05T11:16:12.308Z,6.97
2017-01-05T11:17:23.976Z,6.37
2017-01-05T11:18:35.392Z,5.95
2017-01-05T11:19:46.800Z,5.77
2017-01-05T11:20:58.217Z,5.7
2017-01-05T11:22:09.615Z,5.77
2017-01-05T11:23:21.082Z,5.7
2017-01-05T11:24:32.490Z,5.57
2017-01-05T11:25:43.892Z,5.52
2017-01-05T11:26:55.297Z,5.42
2017-01-05T11:28:06.715Z,5.44
2017-01-05T11:29:18.373Z,5.3
2017-01-05T11:30:29.778Z,5.16
2017-01-05T11:31:41.388Z,5.02
2017-01-05T11:32:52.799Z,4.9
2017-01-05T11:34:04.204Z,4.46
2017-01-05T11:35:15.661Z,4.17
2017-01-05T11:36:27.268Z,4.2
2017-01-05T11:37:38.683Z,4.44
2017-01-05T11:38:50.113Z,4.71
2017-01-05T11:40:01.728Z,4.95
2017-01-05T11:41:13.388Z,5
2017-01-05T11:42:24.994Z,5.08
2017-01-05T11:43:36.404Z,5.06
2017-01-05T11:44:47.805Z,5.27
2017-01-05T11:45:59.211Z,5.23
2017-01-05T11:47:10.666Z,5.33
2017-01-05T11:48:22.066Z,5.34
2017-01-05T11:49:33.465Z,5.26
2017-01-05T11:50:44.872Z,5.28
2017-01-05T11:51:56.272Z,5.3
2017-01-05T11:53:07.724Z,5.46
2017-01-05T11:54:19.132Z,5.34
2017-01-05T11:55:30.539Z,5.15
2017-01-05T11:56:41.945Z,4.87
2017-01-05T11:57:53.382Z,4.76
2017-01-05T11:59:04.845Z,4.88
2017-01-05T12:00:16.251Z,5.2
2017-01-05T12:01:27.657Z,5.48
2017-01-05T12:02:39.071Z,5.51
2017-01-05T12:03:50.515Z,5.27
2017-01-05T12:05:01.966Z,4.87
2017-01-05T12:06:13.375Z,4.71
2017-01-05T12:07:24.777Z,4.58
2017-01-05T12:08:36.184Z,4.26
2017-01-05T12:09:47.581Z,4.3
2017-01-05T12:10:59.027Z,4.22
2017-01-05T12:12:10.431Z,3.94
2017-01-05T12:13:21.842Z,3.86
2017-01-05T12:14:33.247Z,3.72
2017-01-05T12:15:44.652Z,3.6
2017-01-05T12:16:56.106Z,3.43
2017-01-05T12:18:07.506Z,3.53
2017-01-05T12:19:18.909Z,3.32
2017-01-05T12:20:30.347Z,3.16
2017-01-05T12:21:41.742Z,3.19
2017-01-05T12:22:53.194Z,3.14
2017-01-05T12:24:04.599Z,3.35
2017-01-05T12:25:16.427Z,3.67
2017-01-05T12:26:27.822Z,3.85
2017-01-05T12:27:39.221Z,4.2
2017-01-05T12:28:50.668Z,4.39
2017-01-05T12:30:02.119Z,4.5
2017-01-05T12:31:13.521Z,4.3
2017-01-05T12:32:24.929Z,4.1
2017-01-05T12:33:36.332Z,4.29
2017-01-05T12:34:47.793Z,4.36
2017-01-05T12:35:59.193Z,4.4
2017-01-05T12:37:10.595Z,4.65
2017-01-05T12:38:22.196Z,4.57
2017-01-05T12:39:33.596Z,4.76
2017-01-05T12:40:45.002Z,4.78
2017-01-05T12:41:56.406Z,4.95
2017-01-05T12:43:07.831Z,4.98
2017-01-05T12:44:19.233Z,4.88
2017-01-05T12:45:30.888Z,5.03
2017-01-05T12:46:42.288Z,4.98
2017-01-05T12:47:53.694Z,4.65
2017-01-05T12:49:05.096Z,4.28
2017-01-05T12:50:16.496Z,4.28
2017-01-05T12:51:28.351Z,4.3
2017-01-05T12:52:39.743Z,4.5
2017-01-05T12:53:51.142Z,4.83
2017-01-05T12:55:02.547Z,5.03
2017-01-05T12:56:14.153Z,5.31
2017-01-05T12:57:25.837Z,5.36
2017-01-05T12:58:37.244Z,5.54
2017-01-05T12:59:48.653Z,5.46
2017-01-05T13:01:00.063Z,5.59
2017-01-05T13:02:11.453Z,5.54
2017-01-05T13:03:22.907Z,5.64
2017-01-05T13:04:34.315Z,6
2017-01-05T13:05:45.712Z,6.24
2017-01-05T13:06:57.115Z,6.25
2017-01-05T13:08:08.712Z,6.24
2017-01-05T13:09:20.358Z,6.36
2017-01-05T13:10:31.763Z,6.14
2017-01-05T13:11:43.157Z,5.87
2017-01-05T13:12:54.764Z,5.39
2017-01-05T13:14:06.363Z,5.03
2017-01-05T13:15:17.817Z,4.87
2017-01-05T13:16:29.211Z,4.75
2017-01-05T13:17:40.608Z,4.44
2017-01-05T13:18:52.027Z,4.4
2017-01-05T13:20:03.627Z,4.2
2017-01-05T13:21:15.279Z,4.04
2017-01-05T13:22:26.671Z,3.96
2017-01-05T13:23:38.080Z,3.86
2017-01-05T13:24:49.492Z,3.75
2017-01-05T13:26:00.887Z,3.76
2017-01-05T13:27:12.541Z,3.63
2017-01-05T13:28:23.939Z,3.42
2017-01-05T13:29:35.341Z,3.32
2017-01-05T13:30:46.749Z,3.19
2017-01-05T13:31:58.141Z,3.06
2017-01-05T13:33:09.588Z,2.91
2017-01-05T13:34:20.989Z,2.78
2017-01-05T13:35:32.392Z,2.65
2017-01-05T13:36:43.800Z,2.69
2017-01-05T13:37:55.401Z,2.77
2017-01-05T13:39:06.856Z,2.63
2017-01-05T13:40:18.254Z,2.7
2017-01-05T13:41:29.657Z,2.91
2017-01-05T13:42:41.052Z,3.08
2017-01-05T13:43:52.443Z,3.29
2017-01-05T13:45:03.888Z,3.58
2017-01-05T13:46:15.281Z,3.64
2017-01-05T13:47:26.886Z,3.84
2017-01-05T13:48:38.289Z,3.9
2017-01-05T13:49:49.686Z,3.76
2017-01-05T13:51:01.127Z,3.96
2017-01-05T13:52:12.527Z,4.08
2017-01-05T13:53:23.926Z,4.2
2017-01-05T13:54:35.316Z,4.12
2017-01-05T13:55:46.723Z,4.1
2017-01-05T13:56:58.371Z,4
2017-01-05T13:58:09.768Z,3.96
2017-01-05T13:59:21.166Z,3.89
2017-01-05T14:00:32.770Z,3.94
2017-01-05T14:01:44.368Z,3.72
2017-01-05T14:02:56.027Z,3.53
2017-01-05T14:04:07.621Z,3.49
2017-01-05T14:05:19.025Z,3.2
2017-01-05T14:06:30.426Z,3.02
2017-01-05T14:07:41.828Z,3.01
2017-01-05T14:08:53.272Z,3.03
2017-01-05T14:10:04.873Z,2.9
2017-01-05T14:11:16.267Z,2.77
2017-01-05T14:12:27.873Z,2.69
2017-01-05T14:13:39.266Z,2.67
2017-01-05T14:14:50.913Z,2.52
2017-01-05T14:16:02.310Z,2.48
2017-01-05T14:17:13.719Z,2.23
2017-01-05T14:18:25.110Z,2.08
2017-01-05T14:19:36.719Z,1.98
2017-01-05T14:20:48.115Z,1.93
2017-01-05T14:21:59.513Z,1.79
2017-01-05T14:23:10.923Z,1.92
2017-01-05T14:24:22.322Z,1.94
2017-01-05T14:25:33.774Z,1.94
2017-01-05T14:26:45.165Z,1.92
2017-01-05T14:27:56.568Z,1.89
2017-01-05T14:29:07.965Z,1.89
2017-01-05T14:30:19.374Z,1.87
2017-01-05T14:31:30.817Z,1.71
2017-01-05T14:32:42.612Z,1.72
2017-01-05T14:33:54.025Z,1.53
2017-01-05T14:35:05.432Z,1.54
2017-01-05T14:36:17.028Z,1.5
2017-01-05T14:37:28.685Z,1.46
2017-01-05T14:38:40.085Z,1.32
2017-01-05T14:39:51.496Z,1.18
2017-01-05T14:41:02.902Z,1.11
2017-01-05T14:42:14.299Z,1.03
2017-01-05T14:43:25.754Z,0.92
2017-01-05T14:44:37.166Z,0.97
2017-01-05T14:45:48.767Z,0.94
2017-01-05T14:47:00.159Z,0.9
2017-01-05T14:48:11.555Z,0.85
2017-01-05T14:49:23.014Z,0.79
2017-01-05T14:50:34.438Z,0.74
2017-01-05T14:51:45.834Z,0.76
2017-01-05T14:52:57.235Z,0.78
2017-01-05T14:54:08.623Z,0.89
2017-01-05T14:55:20.218Z,0.81
2017-01-05T14:56:31.615Z,0.75
2017-01-05T14:57:43.011Z,0.72
2017-01-05T14:58:54.402Z,0.61
2017-01-05T15:00:05.849Z,0.66
2017-01-05T15:01:17.453Z,0.63
2017-01-05T15:02:28.855Z,0.69
2017-01-05T15:03:40.250Z,0.63
2017-01-05T15:04:51.653Z,0.57
2017-01-05T15:06:03.302Z,0.6
2017-01-05T15:07:14.714Z,0.57
2017-01-05T15:08:26.120Z,0.5
2017-01-05T15:09:37.516Z,0.53
2017-01-05T15:10:48.917Z,0.6
2017-01-05T15:12:00.368Z,0.39
2017-01-05T15:13:11.769Z,0.37
2017-01-05T15:14:23.176Z,0.42
2017-01-05T15:15:34.600Z,0.34
2017-01-05T15:16:45.994Z,0.28
2017-01-05T15:17:57.441Z,0.32
2017-01-05T15:19:08.833Z,0.26
2017-01-05T15:20:20.232Z,0.23
2017-01-05T15:21:31.632Z,0.21
2017-01-05T15:22:43.237Z,0.17
2017-01-05T15:23:54.677Z,0.23
2017-01-05T15:25:06.068Z,0.23
2017-01-05T15:26:17.476Z,0.2
2017-01-05T15:27:28.865Z,0.34
2017-01-05T15:28:40.259Z,0.27
2017-01-05T15:29:51.706Z,0.31
2017-01-05T15:31:03.111Z,0.28
2017-01-05T15:32:14.704Z,0.31
2017-01-05T15:33:26.107Z,0.32
2017-01-05T15:34:37.505Z,0.27
2017-01-05T15:35:48.943Z,0.35
2017-01-05T15:37:00.370Z,0.35
2017-01-05T15:38:12.174Z,0.35
2017-01-05T15:39:23.574Z,0.38
2017-01-05T15:40:34.971Z,0.38
2017-01-05T15:41:46.422Z,0.32
2017-01-05T15:42:57.815Z,0.26
2017-01-05T15:44:09.210Z,0.27
2017-01-05T15:45:20.616Z,0.14
2017-01-05T15:46:32.015Z,0.19